Time;durP1;ratioP1;P1;durP2;ratioP2;P2;SDS_P1;SDS_P2;PMS_P1;PMS_P2;Temp;Humidity;BMP_temperature;BMP_pressure;BME280_temperature;BME280_humidity;BME280_pressure;Samples;Min_cycle;Max_cycle;Signal;HPM_P1;HPM_P2
2022/12/30 00:01:19;;;;;;;0.40;0.30;;;;;;;7.02;100.00;97970.50;5014785;28;20587;-70
2022/12/30 00:03:47;;;;;;;0.70;0.47;;;;;;;7.03;100.00;97977.44;5014522;28;20206;-69
2022/12/30 00:06:17;;;;;;;0.30;0.30;;;;;;;7.03;100.00;97971.31;5014797;28;20233;-69
2022/12/30 00:08:49;;;;;;;0.50;0.40;;;;;;;7.04;100.00;97972.94;5014814;28;20190;-69
2022/12/30 00:11:25;;;;;;;0.50;0.50;;;;;;;7.07;100.00;97967.28;5014813;28;20237;-70
2022/12/30 00:33:31;;;;;;;0.50;0.50;;;;;;;6.88;100.00;97991.81;4999616;28;20248;-69
2022/12/30 00:35:58;;;;;;;0.50;0.40;;;;;;;6.97;100.00;97988.78;5012301;28;20212;-69
2022/12/30 00:38:24;;;;;;;0.47;0.40;;;;;;;7.00;100.00;97982.28;5013884;28;20214;-69
2022/12/30 00:43:35;;;;;;;1.57;0.40;;;;;;;6.91;100.00;97999.31;5014137;28;20178;-70
2022/12/30 00:46:01;;;;;;;0.83;0.40;;;;;;;6.94;100.00;97998.94;5013778;28;20662;-69
2022/12/30 00:56:42;;;;;;;0.60;0.43;;;;;;;6.96;100.00;97989.81;5014230;28;20190;-69
2022/12/30 00:59:09;;;;;;;1.30;0.53;;;;;;;6.96;100.00;98004.84;5013927;28;20206;-69
2022/12/30 01:01:35;;;;;;;0.50;0.50;;;;;;;6.89;100.00;98002.19;5013836;28;20230;-69
2022/12/30 01:04:01;;;;;;;0.40;0.40;;;;;;;6.87;100.00;98006.03;5013501;28;20210;-69
2022/12/30 01:06:28;;;;;;;1.17;0.40;;;;;;;6.78;100.00;98009.88;5013485;28;20215;-69
2022/12/30 01:08:54;;;;;;;0.60;0.50;;;;;;;6.78;100.00;98015.94;5013718;28;20554;-69
2022/12/30 01:11:21;;;;;;;0.40;0.40;;;;;;;6.88;100.00;98012.94;5013454;28;20721;-69
2022/12/30 01:13:47;;;;;;;0.60;0.50;;;;;;;6.87;100.00;98017.41;5013660;28;20215;-69
2022/12/30 01:16:16;;;;;;;0.40;0.40;;;;;;;6.95;100.00;98024.34;5013629;28;20301;-69
2022/12/30 01:18:43;;;;;;;1.40;0.40;;;;;;;6.92;100.00;98027.41;5014354;28;20289;-69
2022/12/30 01:21:10;;;;;;;0.97;0.50;;;;;;;7.02;100.00;98030.50;5013477;28;20266;-69
2022/12/30 01:23:37;;;;;;;0.50;0.50;;;;;;;7.03;100.00;98038.22;5013632;28;20199;-69
2022/12/30 01:26:05;;;;;;;0.40;0.40;;;;;;;7.03;100.00;98032.13;5013709;28;20202;-69
2022/12/30 01:28:34;;;;;;;0.30;0.30;;;;;;;7.01;100.00;98036.81;5013468;28;20217;-69
2022/12/30 01:31:01;;;;;;;0.33;0.33;;;;;;;7.01;100.00;98029.66;5013194;28;20231;-69
2022/12/30 01:33:27;;;;;;;0.67;0.47;;;;;;;7.05;100.00;98038.84;5013486;28;20221;-69
2022/12/30 01:35:54;;;;;;;0.83;0.60;;;;;;;7.02;100.00;98043.72;5013544;28;20207;-69
2022/12/30 01:38:20;;;;;;;0.50;0.50;;;;;;;7.08;100.00;98041.09;5013480;28;20211;-69
2022/12/30 01:40:47;;;;;;;0.90;0.40;;;;;;;6.98;100.00;98043.28;5013414;28;20213;-70
2022/12/30 01:43:15;;;;;;;0.70;0.40;;;;;;;6.88;100.00;98042.81;5013305;28;20551;-70
2022/12/30 01:45:46;;;;;;;0.40;0.40;;;;;;;6.86;100.00;98054.59;5013468;28;20206;-69
2022/12/30 01:48:32;;;;;;;0.30;0.30;;;;;;;6.90;100.00;98061.94;5016452;28;20187;-69
2022/12/30 01:51:05;;;;;;;0.30;0.30;;;;;;;6.78;100.00;98047.66;5017224;28;20239;-69
2022/12/30 01:53:38;;;;;;;2.20;0.57;;;;;;;6.78;100.00;98060.06;5017286;28;20191;-69
2022/12/30 01:56:30;;;;;;;0.40;0.40;;;;;;;6.71;100.00;98052.09;5016985;28;20218;-69
2022/12/30 01:59:11;;;;;;;0.50;0.50;;;;;;;6.72;100.00;98052.91;5017761;28;20195;-69
2022/12/30 02:01:39;;;;;;;1.23;0.50;;;;;;;6.70;100.00;98054.94;5017005;28;20577;-69
2022/12/30 02:04:14;;;;;;;0.57;0.50;;;;;;;6.66;100.00;98049.19;5015667;28;20669;-69
2022/12/30 02:06:52;;;;;;;0.93;0.50;;;;;;;6.64;100.00;98053.88;5016618;28;20187;-69
2022/12/30 02:09:20;;;;;;;1.60;0.50;;;;;;;6.59;100.00;98052.81;5016783;28;20195;-69
2022/12/30 02:11:46;;;;;;;1.27;0.50;;;;;;;6.61;100.00;98054.25;5016715;28;20237;-69
2022/12/30 02:14:14;;;;;;;0.70;0.40;;;;;;;6.54;100.00;98049.94;5016635;28;20720;-69
2022/12/30 02:16:46;;;;;;;1.03;0.40;;;;;;;6.43;100.00;98053.13;5016619;28;20297;-69
2022/12/30 02:20:10;;;;;;;1.90;0.50;;;;;;;6.47;100.00;98041.19;5015599;28;20554;-69
2022/12/30 02:22:51;;;;;;;0.43;0.37;;;;;;;6.34;100.00;98038.44;5014423;28;20246;-69
2022/12/30 02:25:26;;;;;;;0.60;0.47;;;;;;;6.31;100.00;98046.72;5014689;28;20199;-69
2022/12/30 02:28:14;;;;;;;0.50;0.50;;;;;;;6.29;100.00;98043.47;5016006;28;20293;-69
2022/12/30 02:30:40;;;;;;;0.57;0.47;;;;;;;6.28;100.00;98060.31;5016215;28;20589;-69
2022/12/30 02:33:09;;;;;;;0.83;0.40;;;;;;;6.31;100.00;98060.75;5016615;28;20549;-69
2022/12/30 02:35:48;;;;;;;0.60;0.60;;;;;;;6.28;100.00;98068.22;5016548;28;20222;-69
2022/12/30 02:38:23;;;;;;;0.30;0.30;;;;;;;6.32;100.00;98062.38;5016746;28;20302;-69
2022/12/30 02:46:42;;;;;;;0.30;0.30;;;;;;;6.28;100.00;98076.97;5015346;28;20591;-69
2022/12/30 02:49:11;;;;;;;0.53;0.53;;;;;;;6.35;100.00;98071.75;5016312;28;20540;-69
2022/12/30 02:54:25;;;;;;;0.90;0.50;;;;;;;6.31;100.00;98081.88;5016242;28;20174;-69
2022/12/30 02:56:53;;;;;;;0.60;0.50;;;;;;;6.30;100.00;98082.06;5016323;28;20214;-69
2022/12/30 03:05:00;;;;;;;1.63;0.40;;;;;;;6.11;100.00;98083.53;5015804;28;20182;-69
2022/12/30 03:07:58;;;;;;;0.57;0.43;;;;;;;6.04;100.00;98095.03;5015995;28;20206;-69
2022/12/30 03:13:21;;;;;;;0.40;0.40;;;;;;;6.07;100.00;98108.66;4993273;28;20210;-69
2022/12/30 03:15:56;;;;;;;1.80;0.47;;;;;;;6.16;100.00;98096.97;5015526;28;20194;-69
2022/12/30 03:18:24;;;;;;;1.53;0.50;;;;;;;6.06;100.00;98095.69;5016004;28;20534;-69
2022/12/30 03:20:52;;;;;;;1.37;0.50;;;;;;;5.91;100.00;98090.47;5015397;28;20576;-69
2022/12/30 03:28:49;;;;;;;1.20;0.50;;;;;;;5.83;100.00;98087.94;5015617;28;20220;-69
2022/12/30 03:31:17;;;;;;;2.37;0.50;;;;;;;5.85;100.00;98087.75;5014921;28;20237;-69
2022/12/30 03:33:44;;;;;;;0.73;0.40;;;;;;;5.90;100.00;98086.19;5015087;28;20234;-70
2022/12/30 03:36:18;;;;;;;4.00;0.50;;;;;;;5.92;100.00;98088.66;5015409;28;20206;-69
2022/12/30 03:38:56;;;;;;;0.73;0.50;;;;;;;5.91;100.00;98093.09;5015404;28;20290;-69
2022/12/30 03:41:25;;;;;;;1.17;0.47;;;;;;;5.94;100.00;98095.38;5014092;28;20233;-69
2022/12/30 03:43:53;;;;;;;1.23;0.47;;;;;;;5.94;100.00;98084.00;5015198;28;20206;-69
2022/12/30 03:46:21;;;;;;;0.97;0.50;;;;;;;5.85;100.00;98088.59;5014914;28;20694;-69
2022/12/30 03:48:47;;;;;;;2.33;0.43;;;;;;;5.80;100.00;98095.38;5014857;28;20213;-69
2022/12/30 03:51:14;;;;;;;1.30;0.50;;;;;;;5.85;100.00;98091.22;5014620;28;20226;-69
2022/12/30 03:53:40;;;;;;;0.80;0.43;;;;;;;5.83;100.00;98087.16;5014928;28;20202;-69
2022/12/30 03:56:07;;;;;;;2.27;0.93;;;;;;;5.80;100.00;98084.84;5014824;28;20211;-69
2022/12/30 03:58:33;;;;;;;0.70;0.70;;;;;;;5.75;100.00;98074.03;5014648;28;20203;-69
2022/12/30 04:00:59;;;;;;;0.93;0.70;;;;;;;5.70;100.00;98079.84;5014750;28;20222;-69
2022/12/30 04:03:26;;;;;;;0.60;0.40;;;;;;;5.70;100.00;98079.84;5014323;28;20740;-69
2022/12/30 04:05:56;;;;;;;0.87;0.50;;;;;;;5.70;100.00;98086.97;5015323;28;20206;-69
2022/12/30 04:08:23;;;;;;;0.43;0.40;;;;;;;5.57;100.00;98081.56;5014436;28;20206;-69
2022/12/30 04:10:50;;;;;;;0.93;0.50;;;;;;;5.44;100.00;98074.34;5014131;28;20223;-69
2022/12/30 04:13:17;;;;;;;1.00;0.40;;;;;;;5.42;100.00;98078.16;5014432;28;20211;-69
2022/12/30 04:15:51;;;;;;;0.43;0.43;;;;;;;5.35;100.00;98070.16;5014626;28;20214;-69
2022/12/30 04:18:17;;;;;;;1.00;0.30;;;;;;;5.27;100.00;98069.44;5014622;28;20197;-69
2022/12/30 04:20:46;;;;;;;4.03;0.60;;;;;;;5.19;100.00;98059.00;5014404;28;20294;-69
2022/12/30 04:23:12;;;;;;;0.67;0.47;;;;;;;5.02;100.00;98061.03;5014945;28;20213;-69
2022/12/30 04:25:39;;;;;;;1.60;0.70;;;;;;;5.12;100.00;98073.94;5014065;28;20693;-69
2022/12/30 04:28:05;;;;;;;0.97;0.50;;;;;;;5.16;100.00;98062.81;5013819;28;20210;-69
2022/12/30 04:30:32;;;;;;;2.20;0.50;;;;;;;5.14;100.00;98074.56;5013756;28;20585;-69
2022/12/30 04:32:59;;;;;;;1.03;0.50;;;;;;;5.12;100.00;98077.41;5014163;28;20579;-69
2022/12/30 04:35:25;;;;;;;0.60;0.50;;;;;;;5.15;100.00;98076.22;5014667;28;20210;-69
2022/12/30 04:37:52;;;;;;;0.57;0.40;;;;;;;5.14;100.00;98071.91;5013784;28;20211;-69
2022/12/30 04:40:18;;;;;;;1.40;0.70;;;;;;;5.11;100.00;98077.56;5013834;28;20211;-69
2022/12/30 04:42:45;;;;;;;0.87;0.70;;;;;;;5.07;100.00;98066.56;5013954;28;20226;-69
2022/12/30 04:45:11;;;;;;;1.40;0.50;;;;;;;5.03;100.00;98067.13;5014024;28;20206;-69
2022/12/30 04:47:37;;;;;;;1.80;0.50;;;;;;;5.08;100.00;98067.41;5013882;28;20207;-69
2022/12/30 04:50:04;;;;;;;1.23;0.43;;;;;;;5.05;100.00;98063.31;5013519;28;20206;-69
2022/12/30 04:52:31;;;;;;;1.03;0.57;;;;;;;5.00;100.00;98064.84;5013852;28;20232;-69
2022/12/30 04:54:57;;;;;;;0.60;0.60;;;;;;;5.09;100.00;98071.66;5013884;28;20297;-70
2022/12/30 04:57:23;;;;;;;1.43;0.50;;;;;;;5.12;100.00;98068.66;5014057;28;20290;-69
2022/12/30 04:59:50;;;;;;;1.40;0.50;;;;;;;5.17;100.00;98074.19;5013905;28;20206;-69
2022/12/30 05:02:16;;;;;;;0.97;0.50;;;;;;;5.11;100.00;98069.69;5013764;28;20222;-69
2022/12/30 05:04:42;;;;;;;1.43;0.67;;;;;;;5.07;100.00;98073.69;5013876;28;20222;-69
2022/12/30 05:07:09;;;;;;;1.23;0.47;;;;;;;5.05;100.00;98076.50;5013553;28;20317;-69
2022/12/30 05:09:35;;;;;;;1.03;0.50;;;;;;;5.05;100.00;98079.13;5013673;28;20207;-69
2022/12/30 05:12:01;;;;;;;1.50;0.40;;;;;;;5.05;100.00;98089.66;5013612;28;20230;-69
2022/12/30 05:14:28;;;;;;;0.50;0.50;;;;;;;5.17;100.00;98076.84;5013610;28;20213;-69
2022/12/30 05:16:54;;;;;;;1.57;0.60;;;;;;;5.10;100.00;98074.13;5013964;28;20202;-69
2022/12/30 05:19:20;;;;;;;0.50;0.40;;;;;;;5.24;100.00;98077.75;5013634;28;20209;-69
2022/12/30 05:21:47;;;;;;;0.37;0.37;;;;;;;5.14;100.00;98079.81;5013032;28;20237;-69
2022/12/30 05:26:57;;;;;;;0.83;0.40;;;;;;;5.09;100.00;98080.41;5013505;28;20190;-69
2022/12/30 05:29:23;;;;;;;0.67;0.43;;;;;;;5.10;100.00;98082.03;5013474;28;20206;-69
2022/12/30 05:31:50;;;;;;;0.73;0.40;;;;;;;5.05;100.00;98078.28;5013122;28;20230;-69
2022/12/30 05:34:16;;;;;;;0.63;0.60;;;;;;;5.02;100.00;98081.31;5013476;28;20210;-69
2022/12/30 05:36:42;;;;;;;0.43;0.30;;;;;;;4.96;100.00;98085.50;5013540;28;20234;-69
2022/12/30 05:39:12;;;;;;;0.30;0.30;;;;;;;4.85;100.00;98083.34;5013067;28;20313;-69
2022/12/30 05:41:39;;;;;;;0.30;0.30;;;;;;;4.81;100.00;98095.22;5013429;28;20223;-70
2022/12/30 05:44:05;;;;;;;0.40;0.40;;;;;;;4.79;100.00;98093.78;5012911;28;20206;-70
2022/12/30 05:46:32;;;;;;;0.53;0.50;;;;;;;4.71;100.00;98094.66;5013993;28;20207;-70
2022/12/30 05:48:58;;;;;;;0.83;0.40;;;;;;;4.71;100.00;98101.75;5014032;28;20211;-69
2022/12/30 05:51:25;;;;;;;1.10;0.60;;;;;;;4.68;100.00;98100.31;5013139;28;20226;-69
2022/12/30 05:53:51;;;;;;;0.87;0.50;;;;;;;4.63;100.00;98099.19;5013223;28;20264;-69
2022/12/30 05:56:17;;;;;;;0.30;0.30;;;;;;;4.58;100.00;98093.66;5013960;28;20214;-69
2022/12/30 05:58:44;;;;;;;0.40;0.40;;;;;;;4.76;100.00;98091.50;5012834;28;20211;-69
2022/12/30 06:01:10;;;;;;;0.47;0.47;;;;;;;4.70;100.00;98086.97;5012767;28;20706;-70
2022/12/30 06:03:36;;;;;;;0.40;0.40;;;;;;;4.71;100.00;98094.66;5013025;28;20210;-69
2022/12/30 06:06:07;;;;;;;0.50;0.40;;;;;;;4.76;100.00;98087.06;5013393;28;20210;-69
2022/12/30 06:08:34;;;;;;;1.17;0.60;;;;;;;4.77;100.00;98087.84;5012960;28;20657;-69
2022/12/30 06:11:01;;;;;;;2.40;0.50;;;;;;;4.61;100.00;98093.31;5013557;28;20240;-69
2022/12/30 06:13:27;;;;;;;1.63;0.50;;;;;;;4.55;100.00;98086.13;5013041;28;20207;-69
2022/12/30 06:15:54;;;;;;;0.47;0.43;;;;;;;4.45;100.00;98083.75;5013133;28;20214;-69
2022/12/30 06:18:21;;;;;;;1.10;0.60;;;;;;;4.46;100.00;98079.28;5013141;28;20207;-69
2022/12/30 06:20:48;;;;;;;0.50;0.50;;;;;;;4.53;100.00;98075.75;5013486;28;20542;-69
2022/12/30 06:23:15;;;;;;;0.40;0.40;;;;;;;4.50;100.00;98080.56;5012864;28;20571;-69
2022/12/30 06:25:41;;;;;;;1.50;0.33;;;;;;;4.46;100.00;98076.66;5012937;28;20206;-69
2022/12/30 06:28:08;;;;;;;0.80;0.50;;;;;;;4.44;100.00;98082.09;5013021;28;20207;-69
2022/12/30 06:30:34;;;;;;;0.30;0.30;;;;;;;4.47;100.00;98086.22;5012991;28;20226;-70
2022/12/30 06:33:01;;;;;;;0.67;0.40;;;;;;;4.48;100.00;98077.31;5014623;28;20203;-69
2022/12/30 06:35:28;;;;;;;1.83;0.53;;;;;;;4.38;100.00;98087.28;5015856;28;20211;-70
2022/12/30 06:37:54;;;;;;;1.07;0.40;;;;;;;4.28;100.00;98086.72;5016121;28;20203;-69
2022/12/30 06:40:21;;;;;;;0.67;0.40;;;;;;;4.29;100.00;98093.63;5016106;28;20293;-70
2022/12/30 06:42:47;;;;;;;0.47;0.43;;;;;;;4.30;100.00;98084.72;5016027;28;20296;-69
2022/12/30 06:45:14;;;;;;;1.27;0.50;;;;;;;4.21;100.00;98085.81;5016127;28;20217;-69
2022/12/30 06:47:40;;;;;;;0.50;0.50;;;;;;;4.17;100.00;98082.72;5016070;28;20210;-69
2022/12/30 06:50:07;;;;;;;0.40;0.40;;;;;;;4.16;100.00;98072.38;5015972;28;20693;-69
2022/12/30 06:52:34;;;;;;;1.20;0.57;;;;;;;4.19;100.00;98083.34;5015759;28;20234;-70
2022/12/30 06:55:00;;;;;;;1.50;0.57;;;;;;;4.30;100.00;98084.72;5016100;28;20206;-69
2022/12/30 06:57:27;;;;;;;1.83;0.90;;;;;;;4.16;100.00;98075.78;5015672;28;20210;-69
2022/12/30 06:59:53;;;;;;;0.90;0.47;;;;;;;4.09;100.00;98077.53;5015766;28;20550;-69
2022/12/30 07:02:19;;;;;;;1.10;0.50;;;;;;;4.10;100.00;98075.69;5016084;28;20249;-69
2022/12/30 07:04:46;;;;;;;0.83;0.60;;;;;;;4.14;100.00;98079.59;5015717;28;20213;-69
2022/12/30 07:07:12;;;;;;;0.90;0.47;;;;;;;4.12;100.00;98085.03;5015618;28;20206;-70
2022/12/30 07:09:39;;;;;;;1.47;0.90;;;;;;;4.12;100.00;98086.88;5015945;28;20572;-69
2022/12/30 07:12:05;;;;;;;1.03;0.80;;;;;;;4.13;100.00;98085.88;5015601;28;20226;-69
2022/12/30 07:14:32;;;;;;;1.87;0.90;;;;;;;4.13;100.00;98093.75;5015640;28;20287;-69
2022/12/30 07:16:58;;;;;;;2.23;0.90;;;;;;;4.05;100.00;98092.03;5015119;28;20213;-72
2022/12/30 07:19:25;;;;;;;1.80;0.70;;;;;;;4.02;100.00;98097.63;5015445;28;20644;-69
2022/12/30 07:21:51;;;;;;;0.63;0.63;;;;;;;3.96;100.00;98095.72;5015176;28;20234;-69
2022/12/30 07:24:19;;;;;;;0.77;0.77;;;;;;;3.98;100.00;98092.91;5015505;28;20230;-69
2022/12/30 07:26:45;;;;;;;1.47;0.73;;;;;;;3.93;100.00;98095.25;5015650;28;20214;-70
2022/12/30 07:29:12;;;;;;;1.57;1.00;;;;;;;3.87;100.00;98088.03;5015208;28;20206;-69
2022/12/30 07:31:39;;;;;;;1.87;1.00;;;;;;;4.11;100.00;98093.94;5015344;28;20317;-69
2022/12/30 07:34:06;;;;;;;1.43;1.17;;;;;;;4.20;100.00;98097.31;5015457;28;20210;-69
2022/12/30 07:36:33;;;;;;;1.10;1.00;;;;;;;4.16;100.00;98088.16;5014881;28;20217;-69
2022/12/30 07:38:59;;;;;;;1.10;1.00;;;;;;;4.17;100.00;98095.03;5015283;28;20206;-69
2022/12/30 07:41:27;;;;;;;1.70;1.10;;;;;;;4.25;100.00;98092.34;5015171;28;20591;-69
2022/12/30 07:43:53;;;;;;;3.57;1.10;;;;;;;4.28;100.00;98095.44;5015260;28;20325;-70
2022/12/30 07:46:20;;;;;;;1.90;1.27;;;;;;;4.30;100.00;98096.06;5015168;28;20567;-69
2022/12/30 07:48:47;;;;;;;1.30;1.20;;;;;;;4.34;100.00;98091.28;5015204;28;20301;-69
2022/12/30 07:51:15;;;;;;;1.40;1.10;;;;;;;4.41;100.00;98089.53;5015297;28;20590;-69
2022/12/30 07:53:42;;;;;;;1.70;1.10;;;;;;;4.33;100.00;98085.19;5015051;28;20697;-69
2022/12/30 07:56:11;;;;;;;2.90;1.23;;;;;;;4.36;100.00;98086.63;5015069;28;20206;-70
2022/12/30 07:58:38;;;;;;;1.57;1.17;;;;;;;4.43;100.00;98087.56;5015307;28;20561;-69
2022/12/30 08:01:10;;;;;;;2.10;1.33;;;;;;;4.44;100.00;98083.94;5014948;28;20226;-69
2022/12/30 08:03:37;;;;;;;1.73;1.57;;;;;;;4.43;100.00;98077.84;5014984;28;20191;-69
2022/12/30 08:06:08;;;;;;;1.47;1.37;;;;;;;4.46;100.00;98087.19;5014813;28;20294;-69
2022/12/30 08:08:35;;;;;;;2.13;1.33;;;;;;;4.50;100.00;98091.94;5014732;28;20203;-69
2022/12/30 08:11:03;;;;;;;1.53;1.43;;;;;;;4.52;100.00;98089.13;5014535;28;20238;-69
2022/12/30 08:13:32;;;;;;;2.50;1.57;;;;;;;4.55;100.00;98079.03;5014615;28;20206;-69
2022/12/30 08:15:58;;;;;;;3.73;1.60;;;;;;;4.49;100.00;98077.16;5014557;28;20211;-69
2022/12/30 08:18:24;;;;;;;3.43;1.53;;;;;;;4.59;100.00;98080.31;5014793;28;20210;-69
2022/12/30 08:20:51;;;;;;;2.87;1.30;;;;;;;4.59;100.00;98080.31;5014876;28;20220;-69
2022/12/30 08:23:17;;;;;;;2.57;1.43;;;;;;;4.64;100.00;98093.75;5014304;28;20634;-69
2022/12/30 08:25:43;;;;;;;2.57;1.20;;;;;;;4.68;100.00;98092.41;5014425;28;20234;-69
2022/12/30 08:28:10;;;;;;;1.83;1.60;;;;;;;4.70;100.00;98081.69;5014323;28;20213;-70
2022/12/30 08:30:39;;;;;;;1.47;1.37;;;;;;;4.78;100.00;98078.94;5013912;28;20684;-69
2022/12/30 08:33:05;;;;;;;1.40;1.30;;;;;;;4.79;100.00;98070.06;5014168;28;20222;-69
2022/12/30 08:35:32;;;;;;;2.47;1.80;;;;;;;4.85;100.00;98061.44;5014230;28;20206;-70
2022/12/30 08:37:58;;;;;;;1.63;1.53;;;;;;;4.91;100.00;98060.69;5014059;28;20213;-69
2022/12/30 08:40:24;;;;;;;2.30;1.70;;;;;;;4.96;100.00;98055.69;5013991;28;20233;-69
2022/12/30 08:42:51;;;;;;;1.67;1.53;;;;;;;4.95;100.00;98060.16;5014279;28;20318;-70
2022/12/30 08:45:17;;;;;;;2.40;1.40;;;;;;;4.99;100.00;98044.78;5013567;28;20216;-70
2022/12/30 08:47:44;;;;;;;1.53;1.40;;;;;;;5.07;100.00;98042.06;5013828;28;20207;-69
2022/12/30 08:50:10;;;;;;;4.47;1.60;;;;;;;5.09;100.00;98043.50;5013301;28;20670;-69
2022/12/30 08:52:38;;;;;;;1.80;1.60;;;;;;;5.12;100.00;98042.31;5013812;28;20226;-70
2022/12/30 08:55:04;;;;;;;2.47;1.83;;;;;;;5.21;100.00;98035.94;5013356;28;20207;-69
2022/12/30 08:57:31;;;;;;;1.70;1.50;;;;;;;5.30;100.00;98034.81;5013561;28;20573;-69
2022/12/30 08:59:57;;;;;;;1.50;1.40;;;;;;;5.35;100.00;98028.00;5013543;28;20297;-69
2022/12/30 09:02:24;;;;;;;2.30;1.57;;;;;;;5.38;100.00;98024.97;5013597;28;20229;-70
2022/12/30 09:04:50;;;;;;;2.33;1.60;;;;;;;5.42;100.00;98020.16;5013765;28;20207;-70
2022/12/30 09:07:16;;;;;;;2.63;1.67;;;;;;;5.44;100.00;98020.78;5013798;28;20202;-69
2022/12/30 09:09:43;;;;;;;2.47;1.60;;;;;;;5.47;100.00;98018.56;5013681;28;20218;-69
2022/12/30 09:12:09;;;;;;;2.13;1.93;;;;;;;5.48;100.00;98025.47;5013706;28;20240;-69
2022/12/30 09:14:35;;;;;;;1.70;1.60;;;;;;;5.52;100.00;98034.66;5013331;28;20293;-69
2022/12/30 09:17:02;;;;;;;1.80;1.60;;;;;;;5.63;100.00;98028.88;5013267;28;20217;-69
2022/12/30 09:19:28;;;;;;;1.83;1.60;;;;;;;5.73;100.00;98029.38;5013168;28;20692;-69
2022/12/30 09:21:54;;;;;;;2.13;1.90;;;;;;;5.75;100.00;98026.56;5013430;28;20240;-69
2022/12/30 09:24:21;;;;;;;1.83;1.50;;;;;;;5.81;100.00;98028.47;5014038;28;20202;-69
2022/12/30 09:26:47;;;;;;;2.80;1.70;;;;;;;5.88;100.00;98016.97;5013826;28;20214;-69
2022/12/30 09:29:15;;;;;;;3.20;1.90;;;;;;;5.96;100.00;98022.09;5013304;28;20670;-70
2022/12/30 09:31:41;;;;;;;2.37;1.50;;;;;;;6.04;100.00;98023.78;5013782;28;20238;-69
2022/12/30 09:34:07;;;;;;;2.77;2.17;;;;;;;6.12;100.00;98026.28;5013885;28;20221;-70
2022/12/30 09:36:34;;;;;;;3.13;1.40;;;;;;;6.17;100.00;98010.69;5013269;28;20207;-69
2022/12/30 09:39:00;;;;;;;1.70;1.60;;;;;;;6.26;100.00;98005.09;5013458;28;20744;-70
2022/12/30 09:45:09;;;;;;;1.80;1.60;;;;;;;6.56;100.00;97995.91;5013586;28;20216;-70
2022/12/30 09:47:48;;;;;;;3.67;1.63;;;;;;;6.63;100.00;97993.31;5013065;28;20652;-70
2022/12/30 09:50:14;;;;;;;2.00;1.63;;;;;;;6.48;100.00;97987.34;5011775;28;20202;-69
2022/12/30 09:53:03;;;;;;;1.50;1.40;;;;;;;6.56;100.00;97989.84;5013071;28;20245;-70
2022/12/30 09:55:34;;;;;;;2.30;1.60;;;;;;;6.60;100.00;97978.66;5012934;28;20245;-69
2022/12/30 09:58:05;;;;;;;3.50;2.10;;;;;;;6.60;100.00;97976.03;5012881;28;20701;-69
2022/12/30 10:00:35;;;;;;;2.10;1.87;;;;;;;6.69;100.00;97960.84;5013743;28;20241;-69
2022/12/30 10:03:06;;;;;;;3.67;2.00;;;;;;;6.72;100.00;97965.72;5013403;28;20674;-69
2022/12/30 10:06:18;;;;;;;1.83;1.60;;;;;;;6.83;100.00;97951.97;5013369;28;20205;-70
2022/12/30 10:09:33;;;;;;;1.80;1.70;;;;;;;6.78;100.00;97941.16;5016034;28;20630;-70
2022/12/30 10:12:05;;;;;;;3.43;2.03;;;;;;;6.90;100.00;97936.94;5016738;28;20334;-69
2022/12/30 10:14:44;;;;;;;2.13;1.67;;;;;;;6.84;100.00;97927.16;5017005;28;20233;-70
2022/12/30 10:17:38;;;;;;;3.40;1.70;;;;;;;7.02;100.00;97919.50;5016930;28;20201;-70
2022/12/30 10:20:42;;;;;;;2.00;1.30;;;;;;;7.00;100.00;97926.78;5015403;28;20206;-70
2022/12/30 10:23:21;;;;;;;2.57;1.50;;;;;;;6.99;100.00;97909.31;5014381;28;20228;-70
2022/12/30 10:26:01;;;;;;;2.20;1.40;;;;;;;7.14;100.00;97921.34;5016195;28;20634;-70
2022/12/30 10:28:42;;;;;;;3.10;1.90;;;;;;;7.22;100.00;97909.75;4999566;28;20198;-70
2022/12/30 10:31:18;;;;;;;1.60;1.37;;;;;;;7.38;100.00;97904.09;5015353;28;20236;-70
2022/12/30 10:33:47;;;;;;;2.40;1.50;;;;;;;7.49;100.00;97904.31;5016786;28;20214;-70
2022/12/30 10:36:19;;;;;;;1.97;1.20;;;;;;;7.60;100.00;97900.25;5016289;28;20211;-70
2022/12/30 10:38:46;;;;;;;2.60;1.03;;;;;;;7.61;100.00;97893.94;5016692;28;20195;-70
2022/12/30 10:41:36;;;;;;;1.10;0.77;;;;;;;7.63;100.00;97907.75;5016020;28;20721;-70
2022/12/30 10:44:11;;;;;;;1.57;0.60;;;;;;;7.73;100.00;97897.56;5014830;28;20203;-70
2022/12/30 10:47:07;;;;;;;1.10;0.80;;;;;;;7.79;100.00;97886.19;5015778;28;20634;-70
2022/12/30 10:49:52;;;;;;;1.57;0.80;;;;;;;7.91;100.00;97882.69;5016155;28;20199;-70
2022/12/30 10:52:19;;;;;;;2.33;0.90;;;;;;;7.94;100.00;97884.13;5016068;28;20241;-70
2022/12/30 10:54:49;;;;;;;1.50;0.93;;;;;;;8.01;100.00;97874.34;5016185;28;20213;-70
2022/12/30 10:57:18;;;;;;;2.27;1.13;;;;;;;8.12;100.00;97876.34;5015925;28;20203;-70
2022/12/30 10:59:46;;;;;;;1.20;0.63;;;;;;;8.14;100.00;97874.31;5015914;28;20214;-70
2022/12/30 11:02:18;;;;;;;1.63;1.00;;;;;;;8.20;100.00;97870.81;5014241;28;20227;-70
2022/12/30 11:04:45;;;;;;;1.00;0.80;;;;;;;8.31;100.00;97865.72;5015971;28;20191;-70
2022/12/30 11:07:14;;;;;;;1.77;0.97;;;;;;;8.47;100.00;97861.78;5015529;28;20574;-70
2022/12/30 11:09:42;;;;;;;1.10;0.90;;;;;;;8.37;100.00;97850.84;5015541;28;20584;-70
2022/12/30 11:15:19;;;;;;;4.07;1.13;;;;;;;8.39;100.00;97851.44;5015743;28;20182;-70
2022/12/30 11:17:56;;;;;;;1.37;1.23;;;;;;;8.34;100.00;97844.13;5014076;28;20194;-70
2022/12/30 11:20:38;;;;;;;1.47;0.90;;;;;;;8.41;100.00;97844.09;5015547;28;20198;-70
2022/12/30 11:23:21;;;;;;;2.53;0.90;;;;;;;8.36;100.00;97844.72;5015056;28;20661;-70
2022/12/30 11:25:48;;;;;;;1.13;0.90;;;;;;;8.33;100.00;97850.41;5015417;28;20286;-70
2022/12/30 11:28:19;;;;;;;1.00;0.90;;;;;;;8.46;100.00;97844.28;5015324;28;20215;-70
2022/12/30 11:30:59;;;;;;;1.57;0.87;;;;;;;8.45;100.00;97848.75;5015355;28;20213;-70
2022/12/30 11:33:30;;;;;;;2.03;0.90;;;;;;;8.40;100.00;97837.16;5015794;28;20241;-70
2022/12/30 11:36:27;;;;;;;0.87;0.80;;;;;;;8.34;100.00;97841.47;5014381;28;20191;-70
2022/12/30 11:38:55;;;;;;;0.80;0.80;;;;;;;8.32;100.00;97837.41;5015208;28;20202;-70
2022/12/30 11:41:28;;;;;;;1.00;0.70;;;;;;;8.38;100.00;97841.88;5015672;28;20223;-70
2022/12/30 11:43:57;;;;;;;0.73;0.73;;;;;;;8.50;100.00;97835.69;5014721;28;20204;-70
2022/12/30 11:46:26;;;;;;;1.33;0.80;;;;;;;8.63;100.00;97829.50;5014693;28;20241;-70
2022/12/30 11:48:55;;;;;;;1.30;0.87;;;;;;;8.68;100.00;97817.25;5014678;28;20213;-70
2022/12/30 11:51:34;;;;;;;0.97;0.97;;;;;;;8.64;100.00;97820.56;5014898;28;20227;-70
2022/12/30 11:54:12;;;;;;;1.70;0.90;;;;;;;8.69;100.00;97804.81;5014686;28;20265;-70
2022/12/30 11:56:51;;;;;;;1.00;0.80;;;;;;;8.78;100.00;97792.94;5014726;28;20634;-70
2022/12/30 11:59:20;;;;;;;1.53;0.77;;;;;;;8.83;100.00;97785.16;5014472;28;20638;-70
2022/12/30 12:01:52;;;;;;;0.73;0.73;;;;;;;8.99;100.00;97793.41;5014616;28;20233;-70
2022/12/30 12:04:37;;;;;;;0.80;0.80;;;;;;;9.02;100.00;97792.16;5014518;28;20193;-70
2022/12/30 12:07:19;;;;;;;0.93;0.70;;;;;;;8.96;100.00;97809.72;5014479;28;20213;-70
2022/12/30 12:10:23;;;;;;;1.40;0.90;;;;;;;9.10;100.00;97803.31;5014238;28;20197;-70
2022/12/30 12:13:03;;;;;;;1.20;0.80;;;;;;;9.21;100.00;97799.16;5014523;28;20231;-70
2022/12/30 12:15:37;;;;;;;1.80;1.10;;;;;;;9.21;100.00;97799.16;5014675;28;20210;-70
2022/12/30 12:18:20;;;;;;;1.83;1.10;;;;;;;9.20;100.00;97790.41;5013149;28;20233;-70
2022/12/30 12:21:05;;;;;;;0.80;0.80;;;;;;;9.28;97.73;97776.03;5014709;28;20641;-70
2022/12/30 12:24:04;;;;;;;1.50;0.83;;;;;;;9.15;97.09;97787.56;5013140;28;20187;-70
2022/12/30 12:26:59;;;;;;;1.17;0.70;;;;;;;9.11;98.93;97791.69;5014108;28;20195;-70
2022/12/30 12:29:27;;;;;;;0.70;0.70;;;;;;;9.17;98.65;97782.03;5012604;28;20217;-70
2022/12/30 12:32:03;;;;;;;1.97;0.77;;;;;;;9.09;98.54;97767.22;5014163;28;20691;-70
2022/12/30 12:34:56;;;;;;;1.60;0.80;;;;;;;9.11;100.00;97756.38;5013793;28;20622;-70
2022/12/30 12:37:39;;;;;;;1.80;0.80;;;;;;;9.02;100.00;97753.22;5014119;28;20190;-70
2022/12/30 12:40:26;;;;;;;0.90;0.90;;;;;;;9.03;100.00;97748.69;5014071;28;20186;-70
2022/12/30 12:43:02;;;;;;;1.90;0.80;;;;;;;9.01;100.00;97748.91;5013853;28;20257;-70
2022/12/30 12:45:56;;;;;;;0.90;0.90;;;;;;;9.04;100.00;97753.78;5013985;28;20197;-70
2022/12/30 12:48:40;;;;;;;1.80;0.87;;;;;;;9.09;100.00;97742.56;5013911;28;20190;-70
2022/12/30 12:51:21;;;;;;;1.13;0.70;;;;;;;9.08;100.00;97760.28;5012717;28;20321;-70
2022/12/30 12:53:54;;;;;;;1.17;1.00;;;;;;;9.05;100.00;97759.91;5012700;28;20206;-70